Pioneer, Tennessee
Current Conditions -  °F | °C
As of 7:53 PM on Monday 22 Dec 2014 (Local Time) from KOQT Reporting Station
Overcast Overcast  
Wind Chill: 51°   Ceiling: 3500
Heat Index: 51°   Visibility: 10mi
Dew Point: 47°   Wind: 0mph
Humidity: 86%   Direction: NA
Pressure: 29.84"   Gusts: NA
Location:  36.42°N, 84.31°W
Report Text: KOQT 230053Z AUTO 00000KT 10SM OVC035 11/08 A2984 RMK AO2 RAE10 SLP109 P0000 T01060083
Loading
Personal Weather Stations






























Interactive Weather Map New forecast layout! Learn more

10-Day Weather Forecast

Advertisements
Track Severe Weather on mobile